Time;durP1;ratioP1;P1;durP2;ratioP2;P2;SDS_P1;SDS_P2;PMS_P1;PMS_P2;Temp;Humidity;BMP_temperature;BMP_pressure;BME280_temperature;BME280_humidity;BME280_pressure;Samples;Min_cycle;Max_cycle;Signal;HPM_P1;HPM_P2
2023/09/02 00:00:30;;;;;;;12.82;8.70;;;14.30;99.90;;;;;;5077225;28;20241;-81
2023/09/02 00:02:57;;;;;;;10.52;8.27;;;14.30;99.90;;;;;;5078130;28;20197;-81
2023/09/02 00:05:24;;;;;;;11.82;8.75;;;14.20;99.90;;;;;;5076831;28;20178;-81
2023/09/02 00:07:49;;;;;;;10.43;8.05;;;14.20;99.90;;;;;;5078602;28;20198;-82
2023/09/02 00:10:15;;;;;;;10.05;8.68;;;14.20;99.90;;;;;;5076496;28;20200;-82
2023/09/02 00:12:42;;;;;;;14.23;9.00;;;14.20;99.90;;;;;;5078053;28;20198;-82
2023/09/02 00:15:08;;;;;;;11.98;8.38;;;14.20;99.90;;;;;;5076691;28;20174;-81
2023/09/02 00:17:35;;;;;;;11.88;8.98;;;14.20;99.90;;;;;;5077038;28;20181;-81
2023/09/02 00:20:04;;;;;;;10.20;8.93;;;14.20;99.90;;;;;;5079557;28;20178;-81
2023/09/02 00:22:33;;;;;;;11.63;8.32;;;14.20;99.90;;;;;;5076898;28;20205;-81
2023/09/02 00:25:00;;;;;;;13.57;9.20;;;14.20;99.90;;;;;;5076745;28;20195;-82
2023/09/02 00:27:25;;;;;;;14.82;8.75;;;14.20;99.90;;;;;;5078201;28;20666;-82
2023/09/02 00:29:51;;;;;;;13.27;9.60;;;14.20;99.90;;;;;;5078101;28;20261;-81
2023/09/02 00:32:17;;;;;;;11.77;8.73;;;14.20;99.90;;;;;;5076246;28;20193;-81
2023/09/02 00:34:44;;;;;;;14.35;9.55;;;14.30;99.90;;;;;;5076384;28;20173;-81
2023/09/02 00:37:09;;;;;;;16.10;9.13;;;14.30;99.90;;;;;;5076197;28;20198;-81
2023/09/02 00:39:35;;;;;;;15.50;9.73;;;14.30;99.90;;;;;;5076370;28;20557;-81
2023/09/02 00:42:03;;;;;;;17.95;11.00;;;14.20;99.90;;;;;;5076715;28;20201;-81
2023/09/02 00:44:29;;;;;;;14.57;9.90;;;14.20;99.90;;;;;;5078068;28;20174;-81
2023/09/02 00:46:59;;;;;;;16.27;9.70;;;14.20;99.90;;;;;;5076510;28;20318;-82
2023/09/02 00:49:25;;;;;;;13.52;9.40;;;14.30;99.90;;;;;;5076246;28;20216;-82
2023/09/02 00:51:50;;;;;;;15.27;9.93;;;14.30;99.90;;;;;;5077935;28;20569;-82
2023/09/02 00:54:16;;;;;;;16.30;10.52;;;14.20;99.90;;;;;;5077587;28;20181;-81
2023/09/02 00:56:42;;;;;;;13.35;10.23;;;14.20;99.90;;;;;;5077235;28;20181;-81
2023/09/02 00:59:08;;;;;;;16.98;9.65;;;14.20;99.90;;;;;;5077512;28;20170;-81
2023/09/02 01:01:35;;;;;;;14.73;9.88;;;14.20;99.90;;;;;;5077298;28;20516;-81
2023/09/02 01:04:03;;;;;;;17.00;9.45;;;14.20;99.90;;;;;;5076946;28;20194;-82
2023/09/02 01:06:29;;;;;;;18.92;10.50;;;14.20;99.90;;;;;;5076042;28;20206;-82
2023/09/02 01:08:55;;;;;;;13.82;9.95;;;14.20;99.90;;;;;;5077265;28;20691;-82
2023/09/02 01:11:21;;;;;;;15.07;10.30;;;14.20;99.90;;;;;;5076353;28;20215;-82
2023/09/02 01:13:46;;;;;;;17.90;10.55;;;14.20;99.90;;;;;;5076081;28;20229;-81
2023/09/02 01:16:12;;;;;;;19.77;10.98;;;14.20;99.90;;;;;;5075962;28;20185;-81
2023/09/02 01:18:38;;;;;;;13.38;9.75;;;14.20;99.90;;;;;;5077679;28;20174;-82
2023/09/02 01:21:12;;;;;;;14.48;10.70;;;14.20;99.90;;;;;;5077090;28;20257;-82
2023/09/02 01:23:57;;;;;;;17.95;11.70;;;14.20;99.90;;;;;;5076145;28;20297;-82
2023/09/02 01:27:01;;;;;;;15.52;10.63;;;14.20;99.90;;;;;;5077335;28;20209;-81
2023/09/02 01:29:31;;;;;;;14.63;10.23;;;14.20;99.90;;;;;;5075821;28;20181;-81
2023/09/02 01:31:59;;;;;;;14.05;9.85;;;14.20;99.90;;;;;;5076157;28;20189;-81
2023/09/02 01:34:28;;;;;;;18.92;11.68;;;14.20;99.90;;;;;;5076837;28;20166;-81
2023/09/02 01:36:55;;;;;;;19.88;11.43;;;14.30;99.90;;;;;;5075885;28;20250;-82
2023/09/02 01:39:22;;;;;;;16.65;10.90;;;14.20;99.90;;;;;;5075875;28;20185;-82
2023/09/02 01:41:52;;;;;;;19.85;12.30;;;14.20;99.90;;;;;;5076116;28;20174;-82
2023/09/02 01:44:19;;;;;;;22.73;12.25;;;14.20;99.90;;;;;;5077854;28;20174;-81
2023/09/02 01:46:49;;;;;;;21.48;12.68;;;14.20;99.90;;;;;;5079755;28;20198;-81
2023/09/02 01:49:15;;;;;;;19.52;12.63;;;14.30;99.90;;;;;;5081205;28;20196;-81
2023/09/02 01:51:42;;;;;;;21.50;13.38;;;14.20;99.90;;;;;;5081408;28;20178;-81
2023/09/02 01:54:08;;;;;;;19.88;12.18;;;14.20;99.90;;;;;;5082455;28;20193;-81
2023/09/02 01:56:34;;;;;;;20.48;13.18;;;14.20;99.90;;;;;;5079673;28;20217;-81
2023/09/02 01:59:00;;;;;;;20.50;12.55;;;14.20;99.90;;;;;;5079735;28;20181;-81
2023/09/02 02:01:26;;;;;;;24.42;14.18;;;14.20;99.90;;;;;;5080045;28;20594;-82
2023/09/02 02:04:10;;;;;;;19.50;12.98;;;14.20;99.90;;;;;;5080343;28;20208;-82
2023/09/02 02:06:39;;;;;;;22.85;12.45;;;14.20;99.90;;;;;;5080387;28;20204;-82
2023/09/02 02:09:07;;;;;;;17.40;12.02;;;14.20;99.90;;;;;;5079897;28;20210;-82
2023/09/02 02:11:37;;;;;;;20.80;11.85;;;14.20;99.90;;;;;;5080259;28;20181;-82
2023/09/02 02:14:04;;;;;;;16.27;11.57;;;14.20;99.90;;;;;;5080632;28;20197;-81
2023/09/02 02:16:30;;;;;;;19.85;12.10;;;14.20;99.90;;;;;;5080262;28;20178;-81
2023/09/02 02:19:00;;;;;;;17.42;11.82;;;14.20;99.90;;;;;;5079603;28;20213;-81
2023/09/02 02:21:29;;;;;;;22.55;12.00;;;14.10;99.90;;;;;;5079548;28;20181;-82
2023/09/02 02:23:56;;;;;;;19.98;12.13;;;14.10;99.90;;;;;;5080577;28;20200;-81
2023/09/02 02:26:22;;;;;;;21.05;12.80;;;14.10;99.90;;;;;;5079257;28;20213;-82
2023/09/02 02:28:48;;;;;;;15.02;11.05;;;14.10;99.90;;;;;;5080881;28;20196;-82
2023/09/02 02:31:14;;;;;;;21.30;12.38;;;14.10;99.90;;;;;;5079429;28;20273;-81
2023/09/02 02:33:39;;;;;;;15.82;10.60;;;14.00;99.90;;;;;;5079302;28;20265;-82
2023/09/02 02:36:05;;;;;;;17.42;11.25;;;14.00;99.90;;;;;;5080559;28;20205;-82
2023/09/02 02:38:31;;;;;;;16.15;10.77;;;14.00;99.90;;;;;;5079205;28;20184;-82
2023/09/02 02:40:57;;;;;;;20.42;11.90;;;14.00;99.90;;;;;;5080867;28;20170;-82
2023/09/02 02:43:26;;;;;;;21.30;12.00;;;14.00;99.90;;;;;;5078789;28;20197;-82
2023/09/02 02:45:56;;;;;;;17.25;11.38;;;13.90;99.90;;;;;;5076722;28;20178;-81
2023/09/02 02:48:26;;;;;;;19.05;11.10;;;13.90;99.90;;;;;;5076810;28;20177;-82
2023/09/02 02:50:51;;;;;;;16.50;10.80;;;13.80;99.90;;;;;;5075891;28;20178;-82
2023/09/02 02:53:17;;;;;;;14.63;10.75;;;13.80;99.90;;;;;;5076148;28;20570;-82
2023/09/02 02:55:43;;;;;;;16.02;11.10;;;13.80;99.90;;;;;;5076529;28;20307;-82
2023/09/02 02:58:09;;;;;;;17.80;12.90;;;13.70;99.90;;;;;;5076317;28;20180;-82
2023/09/02 03:00:35;;;;;;;15.57;11.43;;;13.70;99.90;;;;;;5076493;28;20170;-82
2023/09/02 03:03:03;;;;;;;16.23;11.43;;;13.60;99.90;;;;;;5078349;28;20194;-81
2023/09/02 03:05:28;;;;;;;21.10;11.73;;;13.70;99.90;;;;;;5078236;28;20189;-82
2023/09/02 03:07:54;;;;;;;18.40;10.80;;;13.70;99.90;;;;;;5076816;28;20715;-82
2023/09/02 03:10:20;;;;;;;19.25;12.20;;;13.70;99.90;;;;;;5077875;28;20177;-81
2023/09/02 03:12:46;;;;;;;17.63;10.70;;;13.70;99.90;;;;;;5077775;28;20229;-81
2023/09/02 03:15:11;;;;;;;16.13;10.85;;;13.70;99.90;;;;;;5077524;28;20173;-81
2023/09/02 03:17:37;;;;;;;16.08;11.35;;;13.70;99.90;;;;;;5077921;28;20204;-82
2023/09/02 03:20:03;;;;;;;19.52;11.45;;;13.70;99.90;;;;;;5080055;28;20178;-81
2023/09/02 03:22:30;;;;;;;20.60;11.70;;;13.80;99.90;;;;;;5079753;28;20193;-81
2023/09/02 03:24:56;;;;;;;19.15;11.27;;;13.80;99.90;;;;;;5077671;28;20189;-81
2023/09/02 03:27:21;;;;;;;19.10;11.48;;;13.80;99.90;;;;;;5078294;28;20201;-81
2023/09/02 03:29:48;;;;;;;17.00;10.90;;;13.80;99.90;;;;;;5077862;28;20174;-81
2023/09/02 03:32:14;;;;;;;16.98;11.52;;;13.90;99.90;;;;;;5078309;28;20256;-81
2023/09/02 03:34:40;;;;;;;13.73;10.60;;;13.90;99.90;;;;;;5079880;28;20166;-81
2023/09/02 03:37:05;;;;;;;17.40;11.15;;;13.90;99.90;;;;;;5080237;28;20189;-81
2023/09/02 03:39:33;;;;;;;18.30;10.80;;;13.90;99.90;;;;;;5078748;28;20549;-82
2023/09/02 03:41:59;;;;;;;16.70;10.48;;;13.90;99.90;;;;;;5078754;28;20182;-81
2023/09/02 03:44:25;;;;;;;17.77;10.95;;;13.90;99.90;;;;;;5078731;28;20178;-81
2023/09/02 03:46:51;;;;;;;15.90;9.73;;;13.90;99.90;;;;;;5077486;28;20284;-82
2023/09/02 03:49:17;;;;;;;18.17;10.50;;;13.90;99.90;;;;;;5077647;28;20196;-82
2023/09/02 03:51:43;;;;;;;13.00;10.23;;;13.90;99.90;;;;;;5078803;28;20182;-81
2023/09/02 03:54:09;;;;;;;16.80;11.23;;;13.90;99.90;;;;;;5079046;28;20220;-81
2023/09/02 03:56:36;;;;;;;17.25;10.82;;;14.00;99.90;;;;;;5078367;28;20190;-81
2023/09/02 03:59:08;;;;;;;14.43;9.60;;;14.00;99.90;;;;;;5079777;28;20239;-81
2023/09/02 04:01:34;;;;;;;24.90;11.50;;;14.00;99.90;;;;;;5077983;28;20177;-81
2023/09/02 04:04:00;;;;;;;13.98;10.85;;;14.00;99.90;;;;;;5077958;28;20542;-81
2023/09/02 04:06:25;;;;;;;14.15;10.70;;;14.00;99.90;;;;;;5078724;28;20569;-81
2023/09/02 04:08:51;;;;;;;19.10;12.35;;;14.00;99.90;;;;;;5077183;28;20178;-81
2023/09/02 04:11:17;;;;;;;17.67;12.82;;;14.00;99.90;;;;;;5078362;28;20178;-81
2023/09/02 04:13:43;;;;;;;15.45;10.73;;;14.00;99.90;;;;;;5076788;28;20251;-81
2023/09/02 04:16:10;;;;;;;18.17;12.43;;;14.00;99.90;;;;;;5077597;28;20265;-81
2023/09/02 04:18:36;;;;;;;24.70;12.80;;;14.00;99.90;;;;;;5078834;28;20162;-81
2023/09/02 04:21:03;;;;;;;17.67;11.45;;;14.00;99.90;;;;;;5077358;28;20582;-81
2023/09/02 04:23:30;;;;;;;18.13;11.50;;;14.00;99.90;;;;;;5077200;28;20194;-81
2023/09/02 04:25:58;;;;;;;16.85;11.73;;;14.00;99.90;;;;;;5078559;28;20208;-82
2023/09/02 04:28:24;;;;;;;14.68;11.05;;;14.00;99.90;;;;;;5076053;28;20174;-82
2023/09/02 04:30:54;;;;;;;13.15;9.70;;;14.00;99.90;;;;;;5076921;28;20165;-82
2023/09/02 04:33:22;;;;;;;16.08;10.05;;;14.00;99.90;;;;;;5075398;28;20196;-82
2023/09/02 04:35:48;;;;;;;15.30;11.13;;;14.00;99.90;;;;;;5075401;28;20177;-82
2023/09/02 04:38:23;;;;;;;16.52;10.48;;;14.00;99.90;;;;;;5077436;28;20180;-82
2023/09/02 04:40:54;;;;;;;23.63;11.18;;;14.00;99.90;;;;;;5077154;28;20169;-81
2023/09/02 04:43:19;;;;;;;16.85;10.60;;;14.00;99.90;;;;;;5076051;28;20243;-82
2023/09/02 04:45:45;;;;;;;14.80;10.63;;;14.00;99.90;;;;;;5075850;28;20562;-82
2023/09/02 04:48:11;;;;;;;16.88;12.40;;;14.00;99.90;;;;;;5077168;28;20539;-82
2023/09/02 04:50:38;;;;;;;17.00;11.68;;;14.00;99.90;;;;;;5077137;28;20166;-83
2023/09/02 04:53:05;;;;;;;24.25;13.10;;;14.00;99.90;;;;;;5090717;23;20225;-89
2023/09/02 04:55:38;;;;;;;21.40;14.18;;;14.00;99.90;;;;;;5075141;28;20252;-87
2023/09/02 04:58:04;;;;;;;18.00;11.50;;;14.00;99.90;;;;;;5074225;28;20288;-87
2023/09/02 05:00:30;;;;;;;18.10;12.77;;;14.00;99.90;;;;;;5073804;28;20205;-87
2023/09/02 05:02:56;;;;;;;19.80;12.73;;;14.10;99.90;;;;;;5072799;28;20181;-87
2023/09/02 05:05:23;;;;;;;20.17;13.35;;;14.10;99.90;;;;;;5074706;28;20627;-87
2023/09/02 05:07:49;;;;;;;19.63;12.18;;;14.10;99.90;;;;;;5073664;28;20747;-87
2023/09/02 05:10:15;;;;;;;19.67;13.65;;;14.10;99.90;;;;;;5074637;28;20640;-87
2023/09/02 05:12:41;;;;;;;18.88;11.88;;;14.20;99.90;;;;;;5073735;28;20268;-87
2023/09/02 05:15:08;;;;;;;19.33;12.85;;;14.20;99.90;;;;;;5074539;28;20638;-87
2023/09/02 05:17:34;;;;;;;19.75;13.27;;;14.20;99.90;;;;;;5075289;28;20251;-86
2023/09/02 05:20:00;;;;;;;18.05;13.25;;;14.20;99.90;;;;;;5078214;28;20173;-86
2023/09/02 05:22:26;;;;;;;24.90;13.32;;;14.30;99.90;;;;;;5076624;28;20185;-86
2023/09/02 05:24:52;;;;;;;17.90;11.82;;;14.30;99.90;;;;;;5078547;28;20189;-87
2023/09/02 05:27:20;;;;;;;19.17;13.23;;;14.30;99.90;;;;;;5077139;28;20217;-87
2023/09/02 05:29:45;;;;;;;22.10;13.93;;;14.40;99.90;;;;;;5077670;28;20177;-85
2023/09/02 05:32:13;;;;;;;16.63;12.70;;;14.40;99.90;;;;;;5077520;28;20174;-85
2023/09/02 05:34:39;;;;;;;19.45;13.48;;;14.40;99.90;;;;;;5077319;28;20572;-88
2023/09/02 05:37:05;;;;;;;19.35;12.48;;;14.40;99.90;;;;;;5077308;28;20296;-88
2023/09/02 05:39:31;;;;;;;17.63;12.60;;;14.50;99.90;;;;;;5077494;28;20675;-87
2023/09/02 05:41:57;;;;;;;19.52;13.82;;;14.50;99.90;;;;;;5077308;28;20265;-87
2023/09/02 05:44:23;;;;;;;16.85;12.30;;;14.50;99.90;;;;;;5077266;28;20228;-88
2023/09/02 05:46:49;;;;;;;16.30;11.07;;;14.60;99.90;;;;;;5078041;28;20216;-88
2023/09/02 05:49:15;;;;;;;19.38;12.13;;;14.60;99.90;;;;;;5077128;28;20182;-87
2023/09/02 05:51:40;;;;;;;14.07;10.48;;;14.60;99.90;;;;;;5077972;28;20263;-87
2023/09/02 05:54:08;;;;;;;17.98;12.25;;;14.70;99.90;;;;;;5076932;28;20177;-87
2023/09/02 05:56:34;;;;;;;18.48;12.00;;;14.70;99.90;;;;;;5077143;28;20232;-88
2023/09/02 05:59:04;;;;;;;22.42;14.13;;;14.80;99.90;;;;;;5077196;28;20173;-87
2023/09/02 06:01:30;;;;;;;17.02;12.23;;;14.80;99.90;;;;;;5077367;28;20714;-87
2023/09/02 06:03:56;;;;;;;16.95;12.05;;;14.80;99.90;;;;;;5077576;28;20181;-87
2023/09/02 06:06:22;;;;;;;21.55;12.70;;;14.80;99.90;;;;;;5076995;28;20201;-87
2023/09/02 06:08:48;;;;;;;17.23;11.88;;;14.90;99.90;;;;;;5077050;28;20189;-87
2023/09/02 06:11:14;;;;;;;19.50;12.18;;;14.90;99.90;;;;;;5076517;28;20189;-87
2023/09/02 06:13:40;;;;;;;21.23;13.75;;;15.00;99.90;;;;;;5076456;28;20268;-87
2023/09/02 06:16:06;;;;;;;19.38;13.48;;;15.00;99.90;;;;;;5077329;28;20225;-87
2023/09/02 06:18:33;;;;;;;20.60;13.13;;;15.10;99.90;;;;;;5076484;28;20269;-87
2023/09/02 06:21:06;;;;;;;19.73;12.70;;;15.10;99.90;;;;;;5076856;28;20177;-87
2023/09/02 06:23:32;;;;;;;18.45;13.05;;;15.10;99.90;;;;;;5076787;28;20166;-87
2023/09/02 06:25:59;;;;;;;19.88;13.02;;;15.20;99.90;;;;;;5076508;28;20625;-87
2023/09/02 06:28:26;;;;;;;17.50;11.88;;;15.20;99.90;;;;;;5077066;28;20280;-87
2023/09/02 06:30:52;;;;;;;17.70;12.90;;;15.20;99.90;;;;;;5076633;28;20170;-87
2023/09/02 06:33:22;;;;;;;15.13;10.75;;;15.30;99.90;;;;;;5078442;28;20173;-87
2023/09/02 06:35:49;;;;;;;20.13;13.32;;;15.30;99.90;;;;;;5079429;28;20194;-87
2023/09/02 06:38:14;;;;;;;21.48;13.70;;;15.40;99.90;;;;;;5077402;28;20174;-87
2023/09/02 06:40:40;;;;;;;18.08;12.55;;;15.40;99.90;;;;;;5076677;28;20226;-87
2023/09/02 06:43:06;;;;;;;18.50;13.05;;;15.50;99.90;;;;;;5076348;28;20203;-88
2023/09/02 06:45:32;;;;;;;22.83;13.30;;;15.50;99.90;;;;;;5077104;28;20251;-88
2023/09/02 06:47:57;;;;;;;18.92;13.63;;;15.60;99.90;;;;;;5077545;28;20662;-88
2023/09/02 06:50:23;;;;;;;16.98;11.45;;;15.70;99.90;;;;;;5078171;28;20642;-88
2023/09/02 06:52:51;;;;;;;17.92;12.07;;;15.90;99.90;;;;;;5077224;28;20195;-88
2023/09/02 06:55:17;;;;;;;19.83;13.27;;;16.00;99.90;;;;;;5076483;28;20184;-88
2023/09/02 06:57:43;;;;;;;17.67;13.15;;;16.10;99.90;;;;;;5076760;28;20197;-88
2023/09/02 07:00:10;;;;;;;16.70;11.82;;;16.20;99.90;;;;;;5078826;28;20170;-88
2023/09/02 07:02:36;;;;;;;17.27;11.80;;;16.30;99.90;;;;;;5076371;28;20182;-88
2023/09/02 07:05:02;;;;;;;17.52;12.43;;;16.30;99.90;;;;;;5075912;28;20185;-88
2023/09/02 07:07:28;;;;;;;15.98;12.02;;;16.40;99.90;;;;;;5075575;28;20213;-89
2023/09/02 07:09:54;;;;;;;17.67;11.85;;;16.50;99.90;;;;;;5075852;28;20178;-89
2023/09/02 07:12:19;;;;;;;19.50;12.02;;;16.60;99.90;;;;;;5075467;28;20304;-88
2023/09/02 07:14:45;;;;;;;18.15;12.93;;;16.70;99.90;;;;;;5076716;28;20214;-88
2023/09/02 07:17:11;;;;;;;12.68;9.75;;;16.80;99.90;;;;;;5076218;28;20198;-89
2023/09/02 07:19:37;;;;;;;15.80;10.73;;;16.80;99.90;;;;;;5075074;28;20594;-89
2023/09/02 07:22:05;;;;;;;13.45;9.80;;;16.90;99.90;;;;;;5075321;28;20210;-89
2023/09/02 07:24:31;;;;;;;12.85;10.40;;;17.00;99.90;;;;;;5073396;28;20258;-89
2023/09/02 07:26:58;;;;;;;12.15;9.40;;;17.10;99.90;;;;;;5074864;28;20289;-89
2023/09/02 07:29:28;;;;;;;13.45;8.40;;;17.20;99.90;;;;;;5058773;28;20201;-89
2023/09/02 07:31:59;;;;;;;15.65;9.43;;;17.20;99.90;;;;;;5076194;28;20586;-89
2023/09/02 07:34:26;;;;;;;11.40;8.75;;;17.10;99.90;;;;;;5075128;28;20178;-89
2023/09/02 07:36:54;;;;;;;12.70;9.13;;;17.10;99.90;;;;;;5075315;28;20222;-89
2023/09/02 07:39:22;;;;;;;9.88;7.80;;;17.20;99.90;;;;;;5077425;28;20597;-88
2023/09/02 07:41:57;;;;;;;12.63;9.30;;;17.20;99.90;;;;;;5075100;28;20189;-88
2023/09/02 07:44:25;;;;;;;11.57;8.93;;;17.20;99.90;;;;;;5057475;28;20235;-88
2023/09/02 07:47:15;;;;;;;9.18;7.90;;;17.30;99.90;;;;;;5076481;28;20263;-89
2023/09/02 07:49:47;;;;;;;9.82;7.43;;;17.30;99.90;;;;;;5076687;28;20178;-89
2023/09/02 07:52:35;;;;;;;8.52;6.90;;;17.40;99.90;;;;;;5062294;28;20292;-88
2023/09/02 07:55:29;;;;;;;10.25;7.35;;;17.40;99.90;;;;;;5083892;28;20723;-87
2023/09/02 07:57:57;;;;;;;11.93;7.57;;;17.50;99.90;;;;;;5075512;28;20635;-87
2023/09/02 08:07:20;;;;;;;8.48;6.70;;;17.80;99.90;;;;;;5080962;22;20305;-79
2023/09/02 08:09:48;;;;;;;9.50;7.50;;;17.80;99.90;;;;;;5074016;28;20174;-79
2023/09/02 08:12:14;;;;;;;9.55;7.28;;;17.80;99.90;;;;;;5075336;28;20190;-79
2023/09/02 08:14:39;;;;;;;12.05;8.55;;;17.80;99.90;;;;;;5074087;28;20226;-78
2023/09/02 08:17:05;;;;;;;9.35;8.18;;;17.80;99.90;;;;;;5073466;28;20264;-79
2023/09/02 08:19:32;;;;;;;9.35;7.00;;;17.80;99.90;;;;;;5075348;28;20683;-79
2023/09/02 08:21:58;;;;;;;9.68;7.97;;;17.90;99.90;;;;;;5073723;28;20182;-79
2023/09/02 08:24:23;;;;;;;7.90;7.03;;;17.90;99.90;;;;;;5074107;28;20552;-79
2023/09/02 08:26:49;;;;;;;9.85;7.47;;;17.90;99.90;;;;;;5075652;28;20202;-79
2023/09/02 08:29:15;;;;;;;10.95;6.97;;;18.00;99.90;;;;;;5075388;28;20169;-78
2023/09/02 08:31:41;;;;;;;9.70;6.97;;;18.00;99.90;;;;;;5074233;28;20266;-79
2023/09/02 08:34:07;;;;;;;9.05;6.50;;;18.10;99.90;;;;;;5075521;28;20217;-79
2023/09/02 08:36:33;;;;;;;8.70;6.65;;;18.00;99.90;;;;;;5074006;28;20209;-79
2023/09/02 08:38:58;;;;;;;7.72;6.28;;;18.10;99.90;;;;;;5074139;28;20178;-79
2023/09/02 08:41:29;;;;;;;7.10;5.72;;;18.30;99.90;;;;;;5074138;28;20178;-79
2023/09/02 08:43:55;;;;;;;7.43;5.55;;;18.40;99.90;;;;;;5074383;28;20677;-78
2023/09/02 08:46:26;;;;;;;5.40;4.90;;;18.50;99.90;;;;;;5074186;28;20201;-79
2023/09/02 08:48:54;;;;;;;6.78;4.95;;;18.70;99.90;;;;;;5074239;28;20609;-78
2023/09/02 08:51:22;;;;;;;7.97;5.57;;;18.80;99.90;;;;;;5074976;28;20286;-78
2023/09/02 08:53:50;;;;;;;6.10;5.00;;;18.90;99.90;;;;;;5066948;28;20197;-79
2023/09/02 08:56:16;;;;;;;9.45;5.68;;;18.90;99.90;;;;;;5055378;28;20175;-78
2023/09/02 08:58:43;;;;;;;6.07;4.93;;;18.90;99.90;;;;;;5053862;28;20551;-78
2023/09/02 09:01:10;;;;;;;6.53;5.05;;;19.00;99.90;;;;;;5055127;28;20253;-78
2023/09/02 09:03:39;;;;;;;6.15;4.95;;;18.90;99.90;;;;;;5053840;28;20673;-79
2023/09/02 09:06:09;;;;;;;5.03;4.53;;;19.00;99.90;;;;;;5055006;28;20228;-78
2023/09/02 09:08:36;;;;;;;5.32;4.38;;;19.00;99.90;;;;;;5056598;28;20164;-78
2023/09/02 09:11:06;;;;;;;6.82;3.78;;;19.10;99.90;;;;;;5055011;28;20185;-78
2023/09/02 09:13:35;;;;;;;4.93;4.32;;;19.30;99.90;;;;;;5053439;28;20194;-78
2023/09/02 09:16:02;;;;;;;5.13;4.20;;;19.40;99.90;;;;;;5052962;28;20723;-78
2023/09/02 09:18:29;;;;;;;4.10;3.70;;;19.50;99.90;;;;;;5055420;28;20200;-78
2023/09/02 09:20:57;;;;;;;4.13;3.70;;;19.50;99.90;;;;;;5057036;28;20167;-78
2023/09/02 09:23:23;;;;;;;3.90;3.55;;;19.60;99.90;;;;;;5062220;28;20197;-80
2023/09/02 09:25:52;;;;;;;6.15;4.60;;;19.70;99.90;;;;;;5077624;28;20174;-81
2023/09/02 09:28:27;;;;;;;4.20;3.55;;;19.70;99.90;;;;;;5077386;28;20746;-80
2023/09/02 09:30:52;;;;;;;4.40;3.75;;;19.90;99.90;;;;;;5079718;28;20165;-78
2023/09/02 09:33:18;;;;;;;3.40;3.08;;;20.10;99.90;;;;;;5078026;28;20595;-80
2023/09/02 09:35:44;;;;;;;2.90;2.70;;;20.10;99.90;;;;;;5077735;28;20235;-79
2023/09/02 09:38:10;;;;;;;2.85;2.55;;;20.10;99.90;;;;;;5076332;28;20594;-80
2023/09/02 09:40:38;;;;;;;3.00;2.70;;;20.10;99.90;;;;;;5074576;28;20265;-80
2023/09/02 09:43:17;;;;;;;3.03;2.83;;;20.20;99.90;;;;;;5074746;28;20205;-80
2023/09/02 09:45:51;;;;;;;3.08;2.78;;;20.30;99.90;;;;;;5074427;28;20546;-80
2023/09/02 09:48:18;;;;;;;2.30;2.10;;;20.30;99.90;;;;;;5074370;28;20296;-81
2023/09/02 09:50:47;;;;;;;2.70;2.50;;;20.40;99.90;;;;;;5074240;28;20709;-81
2023/09/02 09:53:13;;;;;;;5.45;2.53;;;20.50;99.90;;;;;;5074124;28;20254;-80
2023/09/02 09:55:42;;;;;;;2.40;2.20;;;20.60;99.90;;;;;;5073861;28;20260;-81
2023/09/02 09:58:08;;;;;;;2.75;2.55;;;20.60;99.90;;;;;;5073575;28;20259;-81
2023/09/02 10:00:34;;;;;;;3.03;2.80;;;20.70;99.90;;;;;;5075766;28;20182;-80
2023/09/02 10:03:00;;;;;;;2.80;2.30;;;20.70;99.90;;;;;;5074279;28;20209;-81
2023/09/02 10:05:33;;;;;;;2.50;2.30;;;20.70;99.90;;;;;;5075184;28;20661;-79
2023/09/02 10:08:06;;;;;;;2.17;2.03;;;20.90;99.90;;;;;;5077493;28;20213;-81
2023/09/02 10:10:38;;;;;;;3.63;2.50;;;20.90;99.90;;;;;;5077736;28;20611;-81
2023/09/02 10:13:05;;;;;;;2.50;2.30;;;21.00;99.90;;;;;;5077589;28;20571;-80
2023/09/02 10:15:32;;;;;;;4.90;2.40;;;21.10;99.90;;;;;;5077586;28;20158;-80
2023/09/02 10:18:01;;;;;;;4.18;2.15;;;21.20;99.90;;;;;;5077153;28;20178;-79
2023/09/02 10:20:30;;;;;;;4.22;2.53;;;21.20;99.90;;;;;;5076600;28;20209;-78
2023/09/02 10:23:09;;;;;;;2.42;2.20;;;21.20;99.90;;;;;;5076728;28;20205;-79
2023/09/02 10:25:52;;;;;;;3.35;2.65;;;21.30;99.90;;;;;;5076403;28;20194;-76
2023/09/02 10:28:32;;;;;;;2.72;2.30;;;21.40;99.90;;;;;;5075923;28;20330;-79
2023/09/02 10:31:02;;;;;;;2.55;2.35;;;21.50;99.90;;;;;;5075344;28;20162;-77
2023/09/02 10:33:38;;;;;;;2.60;2.40;;;21.70;99.90;;;;;;5076088;28;20564;-79
2023/09/02 10:36:06;;;;;;;3.45;2.17;;;21.80;99.90;;;;;;5077014;28;20241;-79
2023/09/02 10:38:44;;;;;;;2.00;1.85;;;21.80;99.90;;;;;;5077812;28;20601;-79
2023/09/02 10:41:15;;;;;;;2.40;2.20;;;21.90;99.90;;;;;;5077394;28;20166;-80
2023/09/02 10:43:43;;;;;;;3.22;2.13;;;22.00;99.90;;;;;;5077879;28;20285;-79
2023/09/02 10:46:09;;;;;;;2.33;2.13;;;21.90;99.90;;;;;;5077644;28;20514;-79
2023/09/02 10:48:42;;;;;;;2.67;2.10;;;21.90;99.90;;;;;;5078555;28;20576;-80
2023/09/02 10:51:09;;;;;;;1.90;1.80;;;22.00;99.90;;;;;;5077029;28;20548;-79
2023/09/02 10:53:50;;;;;;;2.35;2.15;;;22.00;99.90;;;;;;5076381;28;20286;-79
2023/09/02 10:56:32;;;;;;;2.33;2.03;;;21.90;99.90;;;;;;5077245;28;20213;-80
2023/09/02 10:59:03;;;;;;;2.40;2.20;;;21.80;99.90;;;;;;5076266;28;20621;-80
2023/09/02 11:01:48;;;;;;;4.72;2.13;;;21.90;99.90;;;;;;5076748;28;20724;-79
2023/09/02 11:04:35;;;;;;;2.15;2.03;;;22.00;99.90;;;;;;5076579;28;20197;-80
2023/09/02 11:07:19;;;;;;;1.98;1.85;;;22.20;99.90;;;;;;5076829;28;20218;-80
2023/09/02 11:09:58;;;;;;;2.30;2.10;;;22.50;99.90;;;;;;5077074;28;20579;-80
2023/09/02 11:12:26;;;;;;;2.00;1.90;;;22.50;99.90;;;;;;5076030;28;20204;-79
2023/09/02 11:15:07;;;;;;;2.70;2.15;;;22.50;99.90;;;;;;5077499;28;20169;-80
2023/09/02 11:17:33;;;;;;;1.80;1.70;;;22.70;99.90;;;;;;5076167;28;20703;-79
2023/09/02 11:20:05;;;;;;;1.75;1.65;;;22.70;99.90;;;;;;5076764;28;20213;-79
2023/09/02 11:23:04;;;;;;;1.88;1.77;;;22.80;99.90;;;;;;5075474;28;20200;-79
2023/09/02 11:25:42;;;;;;;3.50;1.90;;;23.00;99.90;;;;;;5064237;28;20186;-79
2023/09/02 11:28:09;;;;;;;2.15;1.95;;;23.20;99.90;;;;;;5075146;28;20205;-80
2023/09/02 11:30:39;;;;;;;5.38;3.15;;;23.30;99.90;;;;;;5077628;28;20169;-80
2023/09/02 11:33:06;;;;;;;5.68;2.55;;;23.40;99.90;;;;;;5076168;28;20224;-80
2023/09/02 11:35:34;;;;;;;3.53;2.08;;;23.60;1.00;;;;;;5078437;28;20200;-80
2023/09/02 11:38:02;;;;;;;2.42;2.03;;;23.30;1.00;;;;;;5075634;28;20177;-79
2023/09/02 11:40:28;;;;;;;2.85;2.00;;;23.30;99.90;;;;;;5075039;28;20177;-80
2023/09/02 11:43:01;;;;;;;3.38;2.40;;;23.20;41.00;;;;;;5075576;28;20202;-80
2023/09/02 11:45:34;;;;;;;2.45;2.25;;;23.20;99.90;;;;;;5075216;28;20188;-80
2023/09/02 11:48:03;;;;;;;5.10;2.50;;;23.10;1.00;;;;;;5075356;28;20575;-80
2023/09/02 11:50:29;;;;;;;4.38;2.20;;;23.00;99.90;;;;;;5076557;28;20272;-80
2023/09/02 11:52:58;;;;;;;3.45;2.40;;;23.00;99.90;;;;;;5075944;28;20394;-79
2023/09/02 11:55:25;;;;;;;2.78;2.47;;;22.90;99.90;;;;;;5077174;28;20181;-80
2023/09/02 11:57:52;;;;;;;6.35;3.50;;;22.80;99.90;;;;;;5078357;28;20198;-80
2023/09/02 12:00:22;;;;;;;2.67;2.20;;;22.50;99.90;;;;;;5077093;28;20549;-81
2023/09/02 12:02:49;;;;;;;5.65;3.65;;;22.40;99.90;;;;;;5077776;28;20193;-79
2023/09/02 12:05:16;;;;;;;6.03;3.30;;;22.40;99.90;;;;;;5076338;28;20174;-80
2023/09/02 12:07:44;;;;;;;3.15;2.63;;;22.40;99.90;;;;;;5075715;28;20274;-80
2023/09/02 12:10:15;;;;;;;5.63;3.17;;;22.50;99.90;;;;;;5075715;28;20174;-80
2023/09/02 12:12:48;;;;;;;3.45;2.47;;;22.60;99.90;;;;;;5075685;28;20244;-80
2023/09/02 12:15:19;;;;;;;2.40;2.10;;;22.70;99.90;;;;;;5075460;28;20170;-80
2023/09/02 12:17:47;;;;;;;2.63;2.42;;;22.80;99.90;;;;;;5076015;28;20205;-81
2023/09/02 12:20:14;;;;;;;2.40;2.20;;;22.90;99.90;;;;;;5074743;28;20181;-80
2023/09/02 12:22:42;;;;;;;3.10;2.30;;;23.00;99.90;;;;;;5076394;28;20204;-79
2023/09/02 12:25:22;;;;;;;4.53;2.40;;;23.00;99.90;;;;;;5075319;28;20231;-79
2023/09/02 12:27:49;;;;;;;4.85;2.60;;;23.10;99.90;;;;;;5075044;28;20194;-79
2023/09/02 12:30:26;;;;;;;3.70;2.50;;;23.30;99.90;;;;;;5076068;28;20169;-80
2023/09/02 12:32:52;;;;;;;2.90;2.70;;;23.30;99.90;;;;;;5074521;28;20197;-79
2023/09/02 12:35:17;;;;;;;3.75;2.35;;;23.30;99.90;;;;;;5075349;28;20245;-80
2023/09/02 12:37:43;;;;;;;7.05;2.50;;;23.20;99.90;;;;;;5074702;28;20192;-80
2023/09/02 12:40:14;;;;;;;6.35;3.20;;;23.10;99.90;;;;;;5075790;28;20204;-80
2023/09/02 12:42:41;;;;;;;4.43;2.60;;;22.80;99.90;;;;;;5075540;28;20685;-80
2023/09/02 12:45:08;;;;;;;3.00;2.45;;;22.70;99.90;;;;;;5075650;28;20544;-80
2023/09/02 12:47:36;;;;;;;4.13;2.90;;;22.60;99.90;;;;;;5074655;28;20681;-80